Etusivu
METAR-TAF:

METAR-TAF

Lentoasemat :

Būšehr, Iran

Leveyspiiri: 28-59N, Pituuspiiri: 050-50E, korkeus merenpinnasta: 19 m

Tämänhetkinen sää

Tämä raportti tehtiin 18 minuuttia sitten, kello 11.00 UTC
Tuuli 12 kn lännestä/luoteesta
Lämpötila 19°C
Kosteus 56%
Ilmanpaine 1017 hPa
Näkyvyys: 5000 m
usvaa

METAR: OIBB 261100Z 29012KT 5000 HZ NSC 19/10 Q1016 A3003

Aika: 14:48 (11:18 UTC)


TAF: puuttuu

Säähavainnot ja -ennusteet yli 4000 lentoasemalta (METAR- ja TAF-raportit).

Käytössä olevat sääasemat on merkitty karttaan keltaisilla ja punaisilla pisteillä.

Aseta hiiri pisteen päälle nähdäksesi sääaseman nimen.

Klikkaa sitten nähdäksesi säähavainnot ja -ennusteet.

Kartan vaihtaminen: klikkaa mustalla rastilla varustettuja vihreitä pisteitä, niin voit zoomata sisään; viivalla varustettua vihreää pistettä, niin voit zoomata ulos tai vihreitä nuolia, niin pääset viereisille kartoille.


METAR-TAF: